OMRK/RKT METAR and TAF weather

Enter ICAO airport designator
Station Type Date Time Source
OMRK METAR 2020/09/20 08:00 UTC NOAA

OMRK 200800Z 35008KT CAVOK 38/21 Q1003 A2963


Station Type Date Time Source
OMRK Decoded METAR 2020/09/20 08:00 UTC NOAA

Ras Al Khaimah International Airport, United Arab Emirates (OMRK) 25-37N 055-56E 31M
Sep 20, 2020 - 04:00 AM EDT / 2020.09.20 0800 UTC
Wind: from the N (350 degrees) at 9 MPH (8 KT):0
Visibility: greater than 7 mile(s):0
Temperature: 100 F (38 C)
Heat index: 106.9 F (41.6 C):1
Dew Point: 69 F (21 C)
Relative Humidity: 37%
Pressure (altimeter): 29.63 in. Hg (1003 hPa)
ob: OMRK 200800Z 35008KT CAVOK 38/21 Q1003 A2963
cycle: 8

Station Type Date Time Source
OMRK TAF 2020/09/20 06:09 UTC NOAA

TAF OMRK 200458Z 2006/2112 VRB02KT 8000 NSC
BECMG 2006/2008 34013KT
BECMG 2014/2016 VRB02KT PROB30 2022/2105 3000 BR BKN003
BECMG 2106/2108 34012KT

Example: see airport list